Wednesday, January 17, 2018, 7:14 PM EST

KOFP, Hanover County Municipal

Location: Ashland, VA, United States Lat: 37.7
Local Time: 7:14 PM EST ( 0:14 GMT) Lon: -77.433
Time Zone: US/Eastern Elev: 203 ft

Show me the last for .
Show Decoded

2018-01-17 18:54 METAR KOFP 172354Z AUTO 35005KT 10SM OVC055 M04/M13 A3031 RMK AO2 SLP265 60000
                 T10441133 11033 21050 50002 =
2018-01-17 17:54 METAR KOFP 172254Z AUTO 34008KT 310V010 10SM SCT029 OVC050 M04/M12 A3032 RMK AO2
                 SNB06E42 SLP268 P0000 T10441122 =
2018-01-17 17:33 METAR KOFP 172233Z AUTO 01007KT 5SM -SN OVC028 M05/M12 A3031 RMK AO2 SNB06 P0000
                 T10501117 =
2018-01-17 16:54 METAR KOFP 172154Z AUTO VRB06KT 7SM OVC037 M04/M12 A3030 RMK AO2 SLP263
                 T10441122 =
2018-01-17 15:54 METAR KOFP 172054Z AUTO 36006KT 9SM OVC047 M04/M12 A3031 RMK AO2 SLP264 60000
                 T10391117 55009 =
2018-01-17 14:54 METAR KOFP 171954Z AUTO VRB06KT 8SM OVC043 M03/M10 A3031 RMK AO2 SNE40 SLP263
                 P0000 T10331100 =
2018-01-17 14:32 METAR KOFP 171932Z AUTO 36008KT 4SM -SN BKN037 OVC044 M04/M09 A3031 RMK AO2
                 P0000 T10391094 =
2018-01-17 14:22 METAR KOFP 171922Z AUTO VRB04KT 2 1/2SM -SN BKN032 OVC039 M04/M09 A3031 RMK AO2
                 P0000 T10391089 =
2018-01-17 13:54 METAR KOFP 171854Z AUTO VRB05KT 4SM -SN BKN036 OVC046 M04/M09 A3033 RMK AO2
                 SLP272 P0000 T10391089 =
2018-01-17 13:36 METAR KOFP 171836Z AUTO 35008KT 310V020 2SM -SN BKN032 OVC045 M04/M08 A3033 RMK
                 AO2 P0000 T10391078 =
2018-01-17 12:54 METAR KOFP 171754Z AUTO 01007G15KT 340V050 1 1/2SM -SN BKN029 OVC036 M04/M07
                 A3033 RMK AO2 SLP274 P0000 60006 T10391072 11006 21039 58015 =
2018-01-17 12:44 METAR KOFP 171744Z AUTO VRB05KT 1 1/4SM -SN BKN029 OVC036 M04/M07 A3034 RMK AO2
                 P0000 T10391072 =
2018-01-17 12:38 METAR KOFP 171738Z AUTO 36007G15KT 320V030 1 1/2SM -SN BKN032 OVC040 M04/M07
                 A3035 RMK AO2 P0000 T10391072 =
2018-01-17 12:21 METAR KOFP 171721Z AUTO 36007KT 320V040 2SM -SN BKN030 OVC040 M04/M07 A3036 RMK
                 AO2 P0000 T10391072 =
2018-01-17 12:16 METAR KOFP 171716Z AUTO VRB06KT 1 3/4SM -SN BKN024 BKN032 OVC040 M04/M07 A3036
                 RMK AO2 P0000 T10391067 =
2018-01-17 12:05 METAR KOFP 171705Z AUTO 35007KT 310V040 1 1/4SM -SN BKN019 BKN026 OVC032 M04/M07
                 A3037 RMK AO2 P0000 T10391067 =
2018-01-17 11:54 METAR KOFP 171654Z AUTO VRB06KT 3/4SM -SN BKN019 OVC029 M04/M07 A3037 RMK AO2
                 SLP287 P0000 T10391067 =
2018-01-17 11:38 METAR KOFP 171638Z AUTO VRB06G15KT 3/4SM -SN BR SCT014 BKN021 OVC030 M04/M06
                 A3038 RMK AO2 P0000 T10391061 =
2018-01-17 11:13 METAR KOFP 171613Z AUTO 36006KT 1SM -SN BKN014 OVC023 M03/M06 A3038 RMK AO2
                 P0000 T10281056 =
2018-01-17 10:54 METAR KOFP 171554Z AUTO 35007KT 1SM -SN FEW014 BKN023 OVC030 M03/M06 A3038 RMK
                 AO2 SLP288 P0001 T10281056 =
2018-01-17 10:13 METAR KOFP 171513Z AUTO VRB06G16KT 1SM -SN FEW008 BKN021 OVC031 M03/M06 A3038
                 RMK AO2 P0000 T10281056 =
2018-01-17 10:06 METAR KOFP 171506Z AUTO 35010G16KT 320V030 1SM -SN BR BKN013 OVC020 M02/M04
                 A3037 RMK AO2 P0000 T10221044 =
2018-01-17 09:54 METAR KOFP 171454Z AUTO 36007KT 320V030 3/4SM -SN BR FEW008 OVC015 M02/M04 A3038
                 RMK AO2 SLP287 P0002 60005 T10221039 53010 =
2018-01-17 09:37 METAR KOFP 171437Z AUTO VRB05KT 3/4SM -SN BR SCT011 OVC018 M02/M04 A3037 RMK AO2
                 P0002 T10221039 =
2018-01-17 09:13 METAR KOFP 171413Z AUTO VRB06KT 1SM -SN BR SCT009 OVC018 M02/M04 A3037 RMK AO2
                 P0002 T10221039 =
2018-01-17 08:54 METAR KOFP 171354Z AUTO VRB05KT 3/4SM -SN BR FEW009 OVC018 M02/M03 A3036 RMK AO2
                 SLP283 P0001 T10171033 =
2018-01-17 08:06 METAR KOFP 171306Z AUTO VRB05KT 3/4SM -SN BR SCT008 OVC020 M02/M03 A3035 RMK AO2
                 P0000 T10171028 =
2018-01-17 07:54 METAR KOFP 171254Z AUTO 36007KT 1SM -SN BR FEW008 OVC020 M01/M03 A3035 RMK AO2
                 SLP277 P0002 T10111028 =
2018-01-17 07:50 METAR KOFP 171250Z AUTO 3/4SM -SN BR SCT008 OVC018 M01/M02 A3035 RMK AO2 P0002 =
2018-01-17 07:40 METAR KOFP 171240Z AUTO VRB06KT 1/2SM SN FZFG FEW007 OVC014 M01/M02 A3035 RMK
                 AO2 P0002 T10111022 =
2018-01-17 07:33 METAR KOFP 171233Z AUTO 36007KT 1SM -SN BR SCT007 OVC013 M01/M02 A3035 RMK AO2
                 P0002 T10111022 =
2018-01-17 06:54 METAR KOFP 171154Z AUTO 00000KT 1SM -SN BR BKN006 BKN010 OVC019 M01/M02 A3034
                 RMK AO2 SLP275 P0001 60001 70001 T10061017 10011 21006 51009 =
2018-01-17 06:46 METAR KOFP 171146Z AUTO 35004KT 1 1/4SM -SN BR BKN008 OVC019 M01/M02 A3034 RMK
                 AO2 P0001 T10061017 =
2018-01-17 06:25 METAR KOFP 171125Z AUTO VRB04KT 1 1/2SM -SN BR FEW009 OVC019 M01/M02 A3034 RMK
                 AO2 P0000 T10061017 =
2018-01-17 06:15 METAR KOFP 171115Z AUTO 36004KT 1 1/4SM -SN BR FEW009 OVC021 M01/M02 A3034 RMK
                 AO2 P0000 T10061017 =
2018-01-17 06:00 METAR KOFP 171100Z AUTO VRB04KT 1 3/4SM -SN BR FEW011 OVC027 00/M02 A3034 RMK
                 AO2 P0000 T00001017 =
2018-01-17 05:54 METAR KOFP 171054Z AUTO 35006KT 2 1/2SM -SN BR FEW012 OVC032 00/M02 A3034 RMK
                 AO2 SNB35 SLP275 P0000 T00001022 =
2018-01-17 04:54 METAR KOFP 170954Z AUTO 35007KT 290V030 8SM OVC055 01/M02 A3032 RMK AO2 SLP270
                 T00061022 =
2018-01-17 03:54 METAR KOFP 170854Z AUTO 36003KT 10SM OVC070 01/M02 A3031 RMK AO2 SLP267
                 T00111022 53003 =
2018-01-17 02:54 METAR KOFP 170754Z AUTO VRB03KT 10SM OVC070 01/M03 A3031 RMK AO2 SLP264
                 T00111033 =
2018-01-17 01:54 METAR KOFP 170654Z AUTO 00000KT 10SM OVC070 01/M03 A3030 RMK AO2 SLP263
                 T00061028 =
2018-01-17 00:54 METAR KOFP 170554Z AUTO 00000KT 10SM OVC080 01/M02 A3031 RMK AO2 SLP264
                 T00061022 10006 21017 58013 =
2018-01-16 23:54 METAR KOFP 170454Z AUTO 00000KT 10SM OVC090 00/M03 A3032 RMK AO2 SLP268
                 T00001028 400611039 =
2018-01-16 22:54 METAR KOFP 170354Z AUTO 00000KT 10SM OVC110 00/M03 A3034 RMK AO2 SLP276
                 T00001033 =
2018-01-16 21:54 METAR KOFP 170254Z AUTO 00000KT 10SM FEW120 M01/M04 A3035 RMK AO2 SLP278
                 T10061039 56009 =
2018-01-16 20:54 METAR KOFP 170154Z AUTO 00000KT 10SM FEW120 M01/M03 A3035 RMK AO2 SLP281
                 T10111033 =
2018-01-16 19:54 METAR KOFP 170054Z AUTO 00000KT 10SM CLR M01/M04 A3035 RMK AO2 SLP281 T10111044
                 =

Support USWX by starting your Amazon purchase here.